Time;durP1;ratioP1;P1;durP2;ratioP2;P2;SDS_P1;SDS_P2;PMS_P1;PMS_P2;Temp;Humidity;BMP_temperature;BMP_pressure;BME280_temperature;BME280_humidity;BME280_pressure;Samples;Min_cycle;Max_cycle;Signal;HPM_P1;HPM_P2
2022/08/11 00:02:24;;;;;;;4.00;3.60;;;;;;;;;;5092032;28;20467;-76
2022/08/11 00:04:52;;;;;;;3.87;3.57;;;;;;;;;;5093786;28;20454;-77
2022/08/11 00:07:19;;;;;;;3.97;3.57;;;;;;;;;;5093961;28;20462;-77
2022/08/11 00:09:46;;;;;;;6.50;3.80;;;;;;;;;;5094070;28;20453;-76
2022/08/11 00:12:14;;;;;;;4.13;3.73;;;;;;;;;;5094419;28;20439;-76
2022/08/11 00:14:42;;;;;;;4.90;3.53;;;;;;;;;;5094289;28;20948;-77
2022/08/11 00:17:11;;;;;;;3.50;3.20;;;;;;;;;;5095871;28;20883;-76
2022/08/11 00:19:41;;;;;;;4.30;3.90;;;;;;;;;;5094210;28;20851;-75
2022/08/11 00:22:09;;;;;;;4.00;3.60;;;;;;;;;;5091124;28;20475;-77
2022/08/11 00:24:37;;;;;;;4.57;3.77;;;;;;;;;;5091715;28;20467;-77
2022/08/11 00:27:06;;;;;;;6.33;3.63;;;;;;;;;;5093062;28;20821;-78
2022/08/11 00:29:33;;;;;;;4.30;3.30;;;;;;;;;;5092893;28;20458;-77
2022/08/11 00:32:03;;;;;;;4.63;3.40;;;;;;;;;;5093339;28;20442;-77
2022/08/11 00:34:30;;;;;;;6.23;4.00;;;;;;;;;;5093807;28;20443;-76
2022/08/11 00:37:01;;;;;;;5.57;4.13;;;;;;;;;;5093903;28;20471;-77
2022/08/11 00:39:31;;;;;;;4.17;3.70;;;;;;;;;;5093939;28;20443;-76
2022/08/11 00:42:05;;;;;;;3.80;3.50;;;;;;;;;;5092777;28;20470;-77
2022/08/11 00:44:38;;;;;;;3.27;2.93;;;;;;;;;;5090566;28;20443;-77
2022/08/11 00:47:11;;;;;;;4.00;3.30;;;;;;;;;;5091420;28;20452;-76
2022/08/11 00:49:42;;;;;;;5.60;3.40;;;;;;;;;;5091580;28;20475;-76
2022/08/11 00:52:14;;;;;;;4.67;3.70;;;;;;;;;;5092725;28;20436;-75
2022/08/11 00:54:56;;;;;;;4.00;3.57;;;;;;;;;;5092533;28;20442;-76
2022/08/11 00:57:39;;;;;;;5.60;4.10;;;;;;;;;;5091948;28;20459;-76
2022/08/11 01:00:13;;;;;;;4.33;3.73;;;;;;;;;;5074867;28;20781;-76
2022/08/11 01:02:45;;;;;;;4.60;4.17;;;;;;;;;;5074279;28;20578;-76
2022/08/11 01:05:17;;;;;;;4.33;3.63;;;;;;;;;;5089606;28;20897;-76
2022/08/11 01:07:59;;;;;;;4.23;3.43;;;;;;;;;;5090280;28;21040;-77
2022/08/11 01:10:43;;;;;;;5.43;4.30;;;;;;;;;;5091761;28;20446;-77
2022/08/11 01:13:16;;;;;;;4.20;3.80;;;;;;;;;;5092039;28;20916;-76
2022/08/11 01:15:58;;;;;;;3.80;3.50;;;;;;;;;;5092509;28;20450;-76
2022/08/11 01:18:40;;;;;;;4.20;3.80;;;;;;;;;;5091741;28;20533;-76
2022/08/11 01:21:14;;;;;;;3.83;3.50;;;;;;;;;;5091944;28;20450;-75
2022/08/11 01:23:56;;;;;;;3.70;3.40;;;;;;;;;;5094073;28;20452;-77
2022/08/11 01:26:38;;;;;;;4.27;3.87;;;;;;;;;;5091530;28;20558;-76
2022/08/11 01:29:20;;;;;;;4.30;3.90;;;;;;;;;;5088929;28;20439;-77
2022/08/11 01:32:01;;;;;;;4.13;3.73;;;;;;;;;;5091480;28;20523;-77
2022/08/11 01:34:43;;;;;;;6.30;4.40;;;;;;;;;;5092174;28;20808;-76
2022/08/11 01:37:27;;;;;;;3.67;3.37;;;;;;;;;;5092028;28;20455;-77
2022/08/11 01:40:13;;;;;;;4.60;4.20;;;;;;;;;;5092333;28;20443;-76
2022/08/11 01:45:38;;;;;;;4.63;3.43;;;;;;;;;;5093780;28;20541;-76
2022/08/11 01:48:09;;;;;;;4.20;3.80;;;;;;;;;;5091872;28;20451;-75
2022/08/11 01:50:46;;;;;;;5.73;3.70;;;;;;;;;;5089321;28;20585;-76
2022/08/11 01:53:22;;;;;;;4.00;3.60;;;;;;;;;;5090685;28;20435;-76
2022/08/11 01:55:56;;;;;;;4.47;4.07;;;;;;;;;;5091682;28;20435;-76
2022/08/11 01:58:28;;;;;;;4.60;4.20;;;;;;;;;;5091740;28;20529;-76
2022/08/11 02:00:59;;;;;;;3.90;3.60;;;;;;;;;;5090777;28;20445;-76
2022/08/11 02:03:30;;;;;;;4.40;4.00;;;;;;;;;;5090419;28;20819;-77
2022/08/11 02:06:01;;;;;;;4.33;3.73;;;;;;;;;;5092772;28;20532;-77
2022/08/11 02:08:35;;;;;;;4.73;4.00;;;;;;;;;;5093755;28;20440;-76
2022/08/11 02:13:52;;;;;;;4.40;3.53;;;;;;;;;;5088657;28;20424;-76
2022/08/11 02:16:26;;;;;;;4.47;4.07;;;;;;;;;;5090885;28;20804;-76
2022/08/11 02:24:31;;;;;;;4.43;4.03;;;;;;;;;;5091310;28;20459;-76
2022/08/11 02:27:02;;;;;;;4.97;4.07;;;;;;;;;;5092011;28;20474;-76
2022/08/11 02:29:33;;;;;;;3.97;3.57;;;;;;;;;;5093552;28;20440;-76
2022/08/11 02:34:54;;;;;;;7.27;3.87;;;;;;;;;;5088401;28;20412;-76
2022/08/11 02:37:25;;;;;;;3.97;3.67;;;;;;;;;;5089855;28;20463;-76
2022/08/11 02:40:04;;;;;;;8.77;4.00;;;;;;;;;;5091027;28;20535;-76
2022/08/11 02:42:33;;;;;;;4.10;3.67;;;;;;;;;;5090973;28;20478;-75
2022/08/11 02:45:11;;;;;;;8.30;4.03;;;;;;;;;;5091527;28;20541;-77
2022/08/11 02:49:52;;;;;;;3.93;3.53;;;;;;;;;;5090885;28;20459;-76
2022/08/11 02:50:30;;;;;;;4.80;3.93;;;;;;;;;;5058360;28;20443;-76
2022/08/11 02:53:01;;;;;;;4.30;3.90;;;;;;;;;;5071648;28;20523;-76
2022/08/11 02:55:32;;;;;;;4.60;3.70;;;;;;;;;;5087760;28;20459;-77
2022/08/11 02:58:03;;;;;;;3.90;3.60;;;;;;;;;;5088720;28;20455;-77
2022/08/11 03:00:30;;;;;;;3.87;3.47;;;;;;;;;;5090297;28;20504;-76
2022/08/11 03:03:08;;;;;;;4.20;3.70;;;;;;;;;;5090459;28;20502;-76
2022/08/11 03:05:44;;;;;;;3.93;3.40;;;;;;;;;;5091098;28;20449;-76
2022/08/11 03:08:17;;;;;;;4.20;3.90;;;;;;;;;;5091454;28;21019;-76
2022/08/11 03:16:43;;;;;;;4.03;3.63;;;;;;;;;;5091213;28;20550;-76
2022/08/11 03:19:12;;;;;;;3.43;3.13;;;;;;;;;;5089595;28;20427;-76
2022/08/11 03:21:43;;;;;;;5.27;3.60;;;;;;;;;;5093494;28;20439;-76
2022/08/11 03:24:14;;;;;;;4.57;4.13;;;;;;;;;;5094500;28;20446;-75
2022/08/11 03:26:47;;;;;;;6.70;4.20;;;;;;;;;;5094493;28;20465;-76
2022/08/11 03:29:20;;;;;;;7.00;4.47;;;;;;;;;;5095090;28;20439;-76
2022/08/11 03:31:50;;;;;;;6.27;4.17;;;;;;;;;;5094291;28;20760;-76
2022/08/11 03:34:18;;;;;;;5.10;4.13;;;;;;;;;;5076056;28;20447;-76
2022/08/11 03:37:00;;;;;;;4.40;4.00;;;;;;;;;;5076075;28;20464;-76
2022/08/11 03:39:33;;;;;;;5.83;4.10;;;;;;;;;;5089529;28;20431;-75
2022/08/11 03:42:08;;;;;;;5.60;4.37;;;;;;;;;;5091782;28;20474;-75
2022/08/11 03:44:44;;;;;;;4.33;3.93;;;;;;;;;;5093594;28;20829;-76
2022/08/11 03:47:26;;;;;;;4.03;3.63;;;;;;;;;;5093693;28;20811;-75
2022/08/11 03:50:00;;;;;;;5.27;4.70;;;;;;;;;;5093881;28;20439;-78
2022/08/11 03:52:29;;;;;;;4.50;3.67;;;;;;;;;;5094673;28;20434;-77
2022/08/11 03:55:03;;;;;;;4.70;3.30;;;;;;;;;;5094265;28;20459;-77
2022/08/11 03:57:45;;;;;;;8.57;3.93;;;;;;;;;;5095771;28;20542;-77
2022/08/11 04:00:24;;;;;;;4.10;3.30;;;;;;;;;;5094395;28;20500;-77
2022/08/11 04:03:06;;;;;;;4.37;3.70;;;;;;;;;;5090108;28;20467;-76
2022/08/11 04:05:48;;;;;;;5.37;4.27;;;;;;;;;;5092046;28;20656;-77
2022/08/11 04:08:30;;;;;;;5.63;3.80;;;;;;;;;;5093470;28;20705;-77
2022/08/11 04:11:07;;;;;;;6.83;3.60;;;;;;;;;;5092723;28;20446;-78
2022/08/11 04:13:50;;;;;;;3.83;3.50;;;;;;;;;;5094242;28;20427;-77
2022/08/11 04:16:30;;;;;;;3.77;3.47;;;;;;;;;;5093006;28;20477;-77
2022/08/11 04:19:12;;;;;;;4.40;3.77;;;;;;;;;;5095854;28;20813;-76
2022/08/11 04:21:52;;;;;;;4.07;3.67;;;;;;;;;;5093772;28;20928;-77
2022/08/11 04:24:27;;;;;;;4.00;3.60;;;;;;;;;;5090535;28;20565;-77
2022/08/11 04:27:00;;;;;;;3.83;3.53;;;;;;;;;;5090128;28;20455;-77
2022/08/11 04:29:36;;;;;;;5.30;4.03;;;;;;;;;;5092958;28;20451;-77
2022/08/11 04:32:15;;;;;;;4.50;4.10;;;;;;;;;;5093158;28;20442;-76
2022/08/11 04:34:52;;;;;;;4.70;4.20;;;;;;;;;;5093167;28;20447;-76
2022/08/11 04:37:34;;;;;;;6.50;3.83;;;;;;;;;;5093281;28;20546;-76
2022/08/11 04:40:06;;;;;;;4.30;4.00;;;;;;;;;;5094326;28;20516;-78
2022/08/11 04:45:50;;;;;;;4.03;3.60;;;;;;;;;;5090906;28;20943;-77
2022/08/11 05:02:58;;;;;;;8.97;3.70;;;;;;;;;;5074449;28;20982;-77
2022/08/11 05:05:32;;;;;;;4.10;3.73;;;;;;;;;;5074868;28;20535;-76
2022/08/11 05:08:15;;;;;;;5.20;3.60;;;;;;;;;;5090544;28;20548;-76
2022/08/11 05:10:48;;;;;;;3.63;3.33;;;;;;;;;;5091075;28;20436;-76
2022/08/11 05:35:12;;;;;;;6.13;4.07;;;;;;;;;;5092168;28;20431;-78
2022/08/11 05:56:50;;;;;;;3.33;3.00;;;;;;;;;;5091318;28;20451;-75
2022/08/11 05:59:18;;;;;;;4.47;3.53;;;;;;;;;;5091910;28;20436;-77
2022/08/11 06:01:46;;;;;;;3.33;3.03;;;;;;;;;;5092234;28;20441;-77
2022/08/11 06:04:17;;;;;;;3.77;3.47;;;;;;;;;;5092324;28;20493;-77
2022/08/11 06:06:50;;;;;;;3.60;3.30;;;;;;;;;;5093754;28;20546;-78
2022/08/11 06:09:23;;;;;;;4.30;3.50;;;;;;;;;;5091617;28;20443;-76
2022/08/11 06:11:51;;;;;;;3.97;3.43;;;;;;;;;;5089250;28;20435;-75
2022/08/11 06:14:18;;;;;;;3.50;3.20;;;;;;;;;;5090301;28;20439;-77
2022/08/11 06:16:48;;;;;;;4.73;4.33;;;;;;;;;;5091247;28;21078;-77
2022/08/11 06:19:15;;;;;;;5.33;3.80;;;;;;;;;;5091194;28;20443;-80
2022/08/11 06:21:46;;;;;;;3.93;3.37;;;;;;;;;;5091808;28;20439;-77
2022/08/11 06:24:13;;;;;;;4.30;3.90;;;;;;;;;;5091635;28;20609;-75
2022/08/11 06:26:47;;;;;;;3.87;3.57;;;;;;;;;;5092611;28;20463;-76
2022/08/11 06:29:17;;;;;;;3.77;3.27;;;;;;;;;;5092454;28;20446;-77
2022/08/11 06:31:51;;;;;;;4.93;4.10;;;;;;;;;;5090575;28;20564;-75
2022/08/11 06:34:27;;;;;;;4.00;3.50;;;;;;;;;;5088952;28;20435;-77
2022/08/11 06:36:56;;;;;;;4.03;3.70;;;;;;;;;;5090459;28;20459;-78
2022/08/11 06:39:30;;;;;;;4.13;3.50;;;;;;;;;;5089771;28;20453;-77
2022/08/11 06:42:04;;;;;;;5.00;3.40;;;;;;;;;;5091212;28;20447;-77
2022/08/11 06:44:34;;;;;;;3.17;2.80;;;;;;;;;;5091486;28;20478;-76
2022/08/11 06:47:07;;;;;;;3.33;3.03;;;;;;;;;;5090834;28;20470;-78
2022/08/11 06:52:18;;;;;;;5.00;3.40;;;;;;;;;;5091617;28;20427;-76
2022/08/11 06:54:51;;;;;;;3.90;3.50;;;;;;;;;;5092674;28;20431;-77
2022/08/11 07:02:46;;;;;;;3.97;3.67;;;;;;;;;;5094546;28;20520;-77
2022/08/11 07:05:19;;;;;;;5.87;3.80;;;;;;;;;;5094993;28;20446;-79
2022/08/11 07:16:15;;;;;;;3.90;3.43;;;;;;;;;;5093352;28;20451;-75
2022/08/11 07:29:40;;;;;;;5.60;3.23;;;;;;;;;;5094255;28;20590;-76
2022/08/11 07:32:13;;;;;;;4.93;4.00;;;;;;;;;;5094982;28;20546;-75
2022/08/11 07:34:46;;;;;;;5.50;3.47;;;;;;;;;;5097018;28;20441;-74
2022/08/11 07:37:16;;;;;;;5.30;3.30;;;;;;;;;;5095350;28;20463;-74
2022/08/11 07:39:44;;;;;;;3.17;2.87;;;;;;;;;;5090907;28;20940;-77
2022/08/11 07:42:12;;;;;;;8.50;3.83;;;;;;;;;;5092664;28;20432;-75
2022/08/11 07:52:46;;;;;;;4.50;3.57;;;;;;;;;;5093932;28;20426;-75
2022/08/11 07:55:15;;;;;;;5.30;2.90;;;;;;;;;;5095568;28;20445;-77
2022/08/11 08:19:20;;;;;;;13.23;3.33;;;;;;;;;;5093891;28;20427;-75
2022/08/11 08:21:47;;;;;;;3.53;3.23;;;;;;;;;;5093785;28;20802;-75
2022/08/11 08:24:15;;;;;;;3.40;3.10;;;;;;;;;;5090966;28;20576;-75
2022/08/11 08:32:08;;;;;;;3.40;3.10;;;;;;;;;;5093155;28;20897;-76
2022/08/11 08:34:36;;;;;;;4.20;3.40;;;;;;;;;;5093995;28;20435;-77
2022/08/11 08:37:04;;;;;;;3.40;3.10;;;;;;;;;;5093107;28;20474;-77
2022/08/11 08:39:33;;;;;;;4.60;3.33;;;;;;;;;;5094731;28;20447;-76
2022/08/11 08:42:01;;;;;;;8.10;3.27;;;;;;;;;;5094264;28;20447;-76
2022/08/11 08:44:29;;;;;;;6.07;3.53;;;;;;;;;;5092049;28;20475;-76
2022/08/11 08:46:58;;;;;;;5.47;3.40;;;;;;;;;;5090697;28;20460;-76
2022/08/11 08:49:29;;;;;;;4.73;3.10;;;;;;;;;;5092208;28;20840;-75
2022/08/11 08:51:59;;;;;;;3.40;2.90;;;;;;;;;;5092872;28;20443;-75
2022/08/11 08:54:29;;;;;;;3.30;3.00;;;;;;;;;;5092903;28;20450;-76
2022/08/11 08:56:57;;;;;;;3.87;3.30;;;;;;;;;;5093401;28;20550;-78
2022/08/11 08:59:26;;;;;;;5.37;3.20;;;;;;;;;;5091133;28;20451;-76
2022/08/11 09:01:56;;;;;;;4.47;3.10;;;;;;;;;;5094786;28;20452;-77
2022/08/11 09:04:23;;;;;;;4.33;2.93;;;;;;;;;;5093733;28;20477;-75
2022/08/11 09:06:52;;;;;;;3.30;2.90;;;;;;;;;;5091308;28;20807;-75
2022/08/11 09:09:20;;;;;;;4.40;2.73;;;;;;;;;;5089081;28;20446;-75
2022/08/11 09:11:52;;;;;;;3.47;3.07;;;;;;;;;;5091969;28;20476;-75
2022/08/11 09:14:20;;;;;;;3.03;2.57;;;;;;;;;;5092149;28;20439;-77
2022/08/11 09:16:48;;;;;;;4.07;2.93;;;;;;;;;;5091502;28;20887;-76
2022/08/11 09:19:17;;;;;;;3.73;2.90;;;;;;;;;;5093239;28;20927;-75
2022/08/11 09:21:44;;;;;;;7.33;3.30;;;;;;;;;;5092339;28;20452;-75
2022/08/11 09:27:02;;;;;;;3.33;2.83;;;;;;;;;;5094012;28;20447;-76
2022/08/11 09:29:31;;;;;;;3.50;3.10;;;;;;;;;;5090201;28;20522;-76
2022/08/11 09:31:59;;;;;;;3.30;3.00;;;;;;;;;;5090488;28;20438;-75
2022/08/11 09:34:26;;;;;;;3.30;3.00;;;;;;;;;;5092052;28;20439;-78
2022/08/11 09:42:21;;;;;;;3.73;3.40;;;;;;;;;;5090581;28;20434;-76
2022/08/11 09:44:48;;;;;;;3.67;3.33;;;;;;;;;;5092796;28;20490;-75
2022/08/11 09:47:19;;;;;;;4.10;3.20;;;;;;;;;;5094424;28;20482;-77
2022/08/11 09:49:47;;;;;;;2.93;2.70;;;;;;;;;;5091587;28;20908;-75
2022/08/11 09:52:15;;;;;;;4.27;2.60;;;;;;;;;;5089797;28;20569;-76
2022/08/11 09:54:44;;;;;;;2.47;2.27;;;;;;;;;;5091379;28;20461;-77
2022/08/11 09:59:54;;;;;;;2.87;2.63;;;;;;;;;;5091458;28;20518;-75
2022/08/11 10:02:24;;;;;;;3.43;2.70;;;;;;;;;;5091879;28;20435;-78
2022/08/11 10:07:00;;;;;;;3.30;3.00;;;;;;;;;;5091192;28;20578;-75
2022/08/11 10:07:39;;;;;;;2.97;2.67;;;;;;;;;;5092808;28;20463;-76
2022/08/11 10:10:09;;;;;;;3.50;3.00;;;;;;;;;;5094207;28;20435;-77
2022/08/11 10:12:37;;;;;;;3.70;2.57;;;;;;;;;;5093375;28;20431;-80
2022/08/11 10:20:33;;;;;;;5.80;2.73;;;;;;;;;;5090598;28;20487;-78
2022/08/11 10:28:24;;;;;;;5.53;2.80;;;;;;;;;;5090993;28;20826;-78
2022/08/11 10:36:14;;;;;;;3.13;2.43;;;;;;;;;;5087806;28;20839;-79
2022/08/11 10:38:41;;;;;;;3.33;3.03;;;;;;;;;;5089660;28;20438;-76
2022/08/11 10:43:52;;;;;;;3.40;2.67;;;;;;;;;;5090943;28;20474;-76
2022/08/11 10:49:02;;;;;;;2.93;2.60;;;;;;;;;;5091747;28;20887;-79
2022/08/11 10:59:36;;;;;;;2.57;2.30;;;;;;;;;;5088370;28;20424;-73
2022/08/11 11:02:03;;;;;;;4.30;3.10;;;;;;;;;;5089823;28;20453;-83
2022/08/11 11:04:45;;;;;;;6.57;3.27;;;;;;;;;;5090799;28;20570;-73
2022/08/11 11:07:19;;;;;;;3.53;3.07;;;;;;;;;;5091116;28;20463;-80
2022/08/11 11:09:49;;;;;;;4.90;2.83;;;;;;;;;;5091574;28;20442;-76
2022/08/11 11:20:29;;;;;;;3.40;2.70;;;;;;;;;;5085970;28;21058;-79
2022/08/11 11:22:57;;;;;;;3.00;2.60;;;;;;;;;;5088735;28;20988;-79
2022/08/11 11:25:31;;;;;;;3.67;2.47;;;;;;;;;;5090220;28;20491;-78
2022/08/11 11:28:10;;;;;;;3.23;2.87;;;;;;;;;;5089517;28;20482;-80
2022/08/11 11:30:42;;;;;;;3.77;2.87;;;;;;;;;;5091006;28;20447;-81
2022/08/11 11:33:13;;;;;;;3.30;3.00;;;;;;;;;;5091276;28;20439;-80
2022/08/11 11:35:47;;;;;;;3.90;3.37;;;;;;;;;;5091199;28;20451;-81
2022/08/11 11:38:15;;;;;;;3.67;3.10;;;;;;;;;;5093127;28;21003;-77
2022/08/11 11:40:42;;;;;;;2.87;2.67;;;;;;;;;;5095267;28;20441;-79
2022/08/11 11:43:11;;;;;;;4.13;3.13;;;;;;;;;;5090721;28;20431;-78
2022/08/11 11:45:41;;;;;;;2.67;2.47;;;;;;;;;;5092799;28;20467;-78
2022/08/11 11:48:09;;;;;;;3.10;2.80;;;;;;;;;;5094118;28;20470;-73
2022/08/11 11:50:37;;;;;;;4.23;2.60;;;;;;;;;;5093937;28;20928;-79
2022/08/11 11:53:04;;;;;;;5.20;3.03;;;;;;;;;;5093334;28;20534;-75
2022/08/11 11:55:32;;;;;;;4.17;2.87;;;;;;;;;;5094660;28;20447;-74
2022/08/11 12:03:26;;;;;;;4.00;2.70;;;;;;;;;;5094524;28;20463;-79
2022/08/11 12:05:53;;;;;;;3.13;2.83;;;;;;;;;;5091543;28;20435;-75
2022/08/11 12:08:21;;;;;;;2.80;2.60;;;;;;;;;;5092370;28;20811;-76
2022/08/11 12:10:49;;;;;;;3.40;2.60;;;;;;;;;;5093849;28;20443;-76
2022/08/11 12:13:43;;;;;;;3.93;2.70;;;;;;;;;;5092868;28;20819;-77
2022/08/11 12:16:12;;;;;;;3.30;2.47;;;;;;;;;;5094101;28;20466;-75
2022/08/11 12:18:41;;;;;;;3.10;2.90;;;;;;;;;;5092778;28;20534;-75
2022/08/11 12:21:10;;;;;;;3.00;2.80;;;;;;;;;;5095025;28;20920;-76
2022/08/11 12:29:01;;;;;;;2.97;2.67;;;;;;;;;;5090788;28;20899;-74
2022/08/11 12:31:30;;;;;;;2.70;2.50;;;;;;;;;;5092853;28;20447;-76
2022/08/11 12:34:01;;;;;;;3.07;2.83;;;;;;;;;;5093169;28;20431;-76
2022/08/11 12:36:29;;;;;;;4.23;3.00;;;;;;;;;;5093132;28;20517;-75
2022/08/11 12:38:58;;;;;;;4.03;2.90;;;;;;;;;;5094074;28;20436;-78
2022/08/11 12:46:51;;;;;;;3.97;2.90;;;;;;;;;;5094987;28;20453;-79
2022/08/11 12:52:04;;;;;;;4.70;2.73;;;;;;;;;;5090499;28;20420;-75
2022/08/11 12:54:34;;;;;;;3.53;3.10;;;;;;;;;;5092645;28;20446;-79
